Etusivu
METAR-TAF:

METAR-TAF

Lentoasemat :

La Grande/Union County Airport

La Grande, Oregon, Yhdysvallat

Leveyspiiri: 45-17N, Pituuspiiri: 118-00W, korkeus merenpinnasta: 827 m

Tämänhetkinen sää

Tämä raportti tehtiin 19 minuuttia sitten, kello 17.56 UTC
tyyntä
Lämpötila 8°C
Kosteus 76%
Ilmanpaine 1022 hPa
Näkyvyys: 16.1 km
selkeää

METAR: KLGD 131756Z AUTO 00000KT 10SM CLR 08/04 A3018 RMK AO2 SLP227 T00830044 10083 20050 50007

Aika: 10:15 (18:15 UTC)


TAF: puuttuu

Säähavainnot ja -ennusteet yli 4000 lentoasemalta (METAR- ja TAF-raportit).

Käytössä olevat sääasemat on merkitty karttaan keltaisilla ja punaisilla pisteillä.

Aseta hiiri pisteen päälle nähdäksesi sääaseman nimen.

Klikkaa sitten nähdäksesi säähavainnot ja -ennusteet.

Kartan vaihtaminen: klikkaa mustalla rastilla varustettuja vihreitä pisteitä, niin voit zoomata sisään; viivalla varustettua vihreää pistettä, niin voit zoomata ulos tai vihreitä nuolia, niin pääset viereisille kartoille.


METAR-TAF: